Time,TemperatureF,DewpointF,PressureIn,WindDirection,WindDirectionDegrees,WindSpeedMPH,WindSpeedGustMPH,Humidity,HourlyPrecipIn,Conditions,Clouds,dailyrainin,SoftwareType,DateUTC
2013-05-25 00:21:00,71.0,45.0,29.78,NW,310,33.0,52.0,39,0.00,,,-99.99,,2013-05-25 07:21:00,
2013-05-25 00:31:00,71.0,45.0,29.78,NW,310,33.0,52.0,39,0.00,,,-99.99,,2013-05-25 07:31:00,
2013-05-25 00:42:00,71.0,45.0,29.78,NW,310,33.0,52.0,39,0.00,,,-99.99,,2013-05-25 07:42:00,
2013-05-25 01:22:00,71.0,40.0,29.78,NW,310,29.0,49.0,32,0.00,,,-99.99,,2013-05-25 08:22:00,
2013-05-25 01:32:00,71.0,40.0,29.78,NW,310,29.0,49.0,32,0.00,,,-99.99,,2013-05-25 08:32:00,
2013-05-25 01:42:00,71.0,40.0,29.78,NW,310,29.0,49.0,32,0.00,,,-99.99,,2013-05-25 08:42:00,
2013-05-25 02:21:00,69.0,39.0,29.77,NW,310,26.0,36.0,33,0.00,,,-99.99,,2013-05-25 09:21:00,
2013-05-25 02:33:00,69.0,39.0,29.77,NW,310,26.0,36.0,33,0.00,,,-99.99,,2013-05-25 09:33:00,
2013-05-25 02:42:00,69.0,39.0,29.77,NW,310,26.0,36.0,33,0.00,,,-99.99,,2013-05-25 09:42:00,
2013-05-25 03:22:00,69.0,34.0,29.77,NW,320,20.0,29.0,27,0.00,,,-99.99,,2013-05-25 10:22:00,
2013-05-25 03:32:00,69.0,34.0,29.77,NW,320,20.0,29.0,27,0.00,,,-99.99,,2013-05-25 10:32:00,
2013-05-25 03:42:00,69.0,34.0,29.77,NW,320,20.0,29.0,27,0.00,,,-99.99,,2013-05-25 10:42:00,
2013-05-25 04:21:00,66.0,39.0,29.78,NW,320,18.0,26.0,37,0.00,,,-99.99,,2013-05-25 11:21:00,
2013-05-25 04:32:00,66.0,39.0,29.78,NW,320,18.0,26.0,37,0.00,,,-99.99,,2013-05-25 11:32:00,
2013-05-25 04:41:00,66.0,39.0,29.78,NW,320,18.0,26.0,37,0.00,,,-99.99,,2013-05-25 11:41:00,
2013-05-25 05:22:00,64.0,42.0,29.78,NW,320,18.0,25.0,45,0.00,,,-99.99,,2013-05-25 12:22:00,
2013-05-25 05:32:00,64.0,42.0,29.78,NW,320,18.0,25.0,45,0.00,,,-99.99,,2013-05-25 12:32:00,
2013-05-25 05:42:00,64.0,42.0,29.78,NW,320,18.0,25.0,45,0.00,,,-99.99,,2013-05-25 12:42:00,
2013-05-25 06:21:00,62.0,40.0,29.79,NW,310,11.0,20.0,45,0.00,,,-99.99,,2013-05-25 13:21:00,
2013-05-25 06:32:00,62.0,40.0,29.79,NW,310,11.0,20.0,45,0.00,,,-99.99,,2013-05-25 13:32:00,
2013-05-25 06:42:00,62.0,40.0,29.79,NW,310,11.0,20.0,45,0.00,,,-99.99,,2013-05-25 13:42:00,
2013-05-25 07:22:00,62.0,43.0,29.82,NW,310,16.0,27.0,49,0.00,,,-99.99,,2013-05-25 14:22:00,
2013-05-25 07:32:00,62.0,43.0,29.82,NW,310,16.0,27.0,49,0.00,,,-99.99,,2013-05-25 14:32:00,
2013-05-25 07:42:00,62.0,43.0,29.82,NW,310,16.0,27.0,49,0.00,,,-99.99,,2013-05-25 14:42:00,
2013-05-25 07:43:00,66.0,42.0,29.84,WNW,300,15.0,32.0,42,0.00,,,-99.99,,2013-05-25 14:43:00,
2013-05-25 08:22:00,66.0,42.0,29.84,WNW,300,15.0,32.0,42,0.00,,,-99.99,,2013-05-25 15:22:00,
2013-05-25 08:33:00,66.0,42.0,29.84,WNW,300,15.0,32.0,42,0.00,,,-99.99,,2013-05-25 15:33:00,
2013-05-25 09:23:00,71.0,41.0,29.84,WNW,300,14.0,30.0,34,0.00,,,-99.99,,2013-05-25 16:23:00,
2013-05-25 09:32:00,71.0,41.0,29.84,WNW,300,14.0,30.0,34,0.00,,,-99.99,,2013-05-25 16:32:00,
2013-05-25 09:42:00,71.0,41.0,29.84,WNW,300,14.0,30.0,34,0.00,,,-99.99,,2013-05-25 16:42:00,
2013-05-25 10:22:00,75.0,34.0,29.84,WNW,300,28.0,35.0,22,0.00,,,-99.99,,2013-05-25 17:22:00,
2013-05-25 10:32:00,75.0,34.0,29.84,WNW,300,28.0,35.0,22,0.00,,,-99.99,,2013-05-25 17:32:00,
2013-05-25 10:42:00,75.0,34.0,29.84,WNW,300,28.0,35.0,22,0.00,,,-99.99,,2013-05-25 17:42:00,
2013-05-25 11:21:00,80.0,25.0,29.84,WNW,300,17.0,34.0,13,0.00,,,-99.99,,2013-05-25 18:21:00,
2013-05-25 11:32:00,80.0,25.0,29.84,WNW,300,17.0,34.0,13,0.00,,,-99.99,,2013-05-25 18:32:00,
2013-05-25 11:42:00,83.0,21.0,29.85,WNW,300,16.0,34.0,10,0.00,,,-99.99,,2013-05-25 18:42:00,
2013-05-25 12:21:00,83.0,21.0,29.85,WNW,300,16.0,34.0,10,0.00,,,-99.99,,2013-05-25 19:21:00,
2013-05-25 12:32:00,83.0,21.0,29.85,WNW,300,16.0,34.0,10,0.00,,,-99.99,,2013-05-25 19:32:00,
2013-05-25 12:42:00,84.0,24.0,29.83,WNW,290,12.0,22.0,11,0.00,,,-99.99,,2013-05-25 19:42:00,
2013-05-25 13:21:00,84.0,24.0,29.83,WNW,290,12.0,22.0,11,0.00,,,-99.99,,2013-05-25 20:21:00,
2013-05-25 13:32:00,84.0,24.0,29.83,WNW,290,12.0,22.0,11,0.00,,,-99.99,,2013-05-25 20:32:00,
2013-05-25 13:42:00,85.0,25.0,29.83,WNW,290,8.0,17.0,11,0.00,,,-99.99,,2013-05-25 20:42:00,
2013-05-25 14:21:00,85.0,25.0,29.83,WNW,290,8.0,17.0,11,0.00,,,-99.99,,2013-05-25 21:21:00,
2013-05-25 14:33:00,85.0,25.0,29.83,WNW,290,8.0,17.0,11,0.00,,,-99.99,,2013-05-25 21:33:00,
2013-05-25 14:42:00,87.0,32.0,29.81,WNW,290,14.0,22.0,14,0.00,,,-99.99,,2013-05-25 21:42:00,
2013-05-25 15:22:00,87.0,32.0,29.81,WNW,290,14.0,22.0,14,0.00,,,-99.99,,2013-05-25 22:22:00,
2013-05-25 15:32:00,87.0,32.0,29.81,WNW,290,14.0,22.0,14,0.00,,,-99.99,,2013-05-25 22:32:00,
2013-05-25 15:42:00,87.0,30.0,29.79,WNW,290,25.0,32.0,13,0.00,,,-99.99,,2013-05-25 22:42:00,
2013-05-25 16:22:00,87.0,30.0,29.79,WNW,290,25.0,32.0,13,0.00,,,-99.99,,2013-05-25 23:22:00,
2013-05-25 16:32:00,87.0,30.0,29.79,WNW,290,25.0,32.0,13,0.00,,,-99.99,,2013-05-25 23:32:00,
2013-05-25 16:42:00,88.0,27.0,29.78,WNW,300,24.0,32.0,11,0.00,,,-99.99,,2013-05-25 23:42:00,
2013-05-25 17:21:00,88.0,27.0,29.78,WNW,300,24.0,32.0,11,0.00,,,-99.99,,2013-05-26 00:21:00,
2013-05-25 17:31:00,88.0,27.0,29.78,WNW,300,24.0,32.0,11,0.00,,,-99.99,,2013-05-26 00:31:00,
2013-05-25 17:42:00,86.0,35.0,29.77,WNW,300,34.0,45.0,16,0.00,,,-99.99,,2013-05-26 00:42:00,
2013-05-25 18:21:00,86.0,35.0,29.77,WNW,300,34.0,45.0,16,0.00,,,-99.99,,2013-05-26 01:21:00,
2013-05-25 18:32:00,86.0,35.0,29.77,WNW,300,34.0,45.0,16,0.00,,,-99.99,,2013-05-26 01:32:00,
2013-05-25 19:21:00,82.0,43.0,29.77,NW,310,42.0,48.0,25,0.00,,,-99.99,,2013-05-26 02:21:00,
2013-05-25 19:32:00,82.0,43.0,29.77,NW,310,42.0,48.0,25,0.00,,,-99.99,,2013-05-26 02:32:00,
2013-05-25 20:21:00,78.0,45.0,29.77,NW,310,26.0,43.0,31,0.00,,,-99.99,,2013-05-26 03:21:00,
2013-05-25 20:33:00,78.0,45.0,29.77,NW,310,26.0,43.0,31,0.00,,,-99.99,,2013-05-26 03:33:00,
2013-05-25 20:42:00,78.0,45.0,29.77,NW,310,26.0,43.0,31,0.00,,,-99.99,,2013-05-26 03:42:00,
2013-05-25 21:23:00,75.0,45.0,29.78,NW,310,29.0,47.0,35,0.00,,,-99.99,,2013-05-26 04:23:00,
2013-05-25 21:33:00,75.0,45.0,29.78,NW,310,29.0,47.0,35,0.00,,,-99.99,,2013-05-26 04:33:00,
2013-05-25 21:42:00,75.0,45.0,29.78,NW,310,29.0,47.0,35,0.00,,,-99.99,,2013-05-26 04:42:00,
2013-05-25 22:22:00,73.0,43.0,29.80,NW,310,25.0,43.0,34,0.00,,,-99.99,,2013-05-26 05:22:00,
2013-05-25 22:32:00,73.0,43.0,29.80,NW,310,25.0,43.0,34,0.00,,,-99.99,,2013-05-26 05:32:00,
2013-05-25 22:42:00,73.0,43.0,29.80,NW,310,25.0,43.0,34,0.00,,,-99.99,,2013-05-26 05:42:00,
2013-05-25 23:21:00,71.0,44.0,29.81,NW,310,25.0,42.0,38,0.00,,,-99.99,,2013-05-26 06:21:00,
2013-05-25 23:32:00,71.0,44.0,29.81,NW,310,25.0,42.0,38,0.00,,,-99.99,,2013-05-26 06:32:00,
2013-05-25 23:41:00,71.0,44.0,29.81,NW,310,25.0,42.0,38,0.00,,,-99.99,,2013-05-26 06:41:00,